sensor_id;sensor_type;location;lat;lon;timestamp;pressure;altitude;pressure_sealevel;temperature;humidity
18765;BME280;9511;54.242;12.448;2024-02-28T00:02:07;101841.72;;;0.31;100.00
18765;BME280;9511;54.242;12.448;2024-02-28T00:04:34;101844.56;;;0.34;100.00
18765;BME280;9511;54.242;12.448;2024-02-28T00:07:01;101849.66;;;0.32;100.00
18765;BME280;9511;54.242;12.448;2024-02-28T00:09:28;101846.94;;;0.41;100.00
18765;BME280;9511;54.242;12.448;2024-02-28T00:11:55;101853.16;;;0.43;100.00
18765;BME280;9511;54.242;12.448;2024-02-28T00:14:22;101861.34;;;0.47;100.00
18765;BME280;9511;54.242;12.448;2024-02-28T00:16:49;101859.53;;;0.46;100.00
18765;BME280;9511;54.242;12.448;2024-02-28T00:19:18;101853.66;;;0.49;100.00
18765;BME280;9511;54.242;12.448;2024-02-28T00:21:46;101855.88;;;0.44;100.00
18765;BME280;9511;54.242;12.448;2024-02-28T00:24:13;101848.47;;;0.39;100.00
18765;BME280;9511;54.242;12.448;2024-02-28T00:26:41;101847.03;;;0.42;100.00
18765;BME280;9511;54.242;12.448;2024-02-28T00:29:08;101849.25;;;0.48;100.00
18765;BME280;9511;54.242;12.448;2024-02-28T00:31:35;101851.56;;;0.45;100.00
18765;BME280;9511;54.242;12.448;2024-02-28T00:34:02;101849.47;;;0.51;100.00
18765;BME280;9511;54.242;12.448;2024-02-28T00:36:31;101845.06;;;0.40;100.00
18765;BME280;9511;54.242;12.448;2024-02-28T00:38:58;101844.94;;;0.48;100.00
18765;BME280;9511;54.242;12.448;2024-02-28T00:41:25;101850.03;;;0.47;100.00
18765;BME280;9511;54.242;12.448;2024-02-28T00:43:52;101846.75;;;0.49;100.00
18765;BME280;9511;54.242;12.448;2024-02-28T00:46:19;101847.16;;;0.54;100.00
18765;BME280;9511;54.242;12.448;2024-02-28T00:48:46;101842.16;;;0.57;100.00
18765;BME280;9511;54.242;12.448;2024-02-28T00:51:13;101840.75;;;0.61;100.00
18765;BME280;9511;54.242;12.448;2024-02-28T00:53:42;101844.03;;;0.58;100.00
18765;BME280;9511;54.242;12.448;2024-02-28T00:56:09;101845.66;;;0.68;100.00
18765;BME280;9511;54.242;12.448;2024-02-28T00:58:36;101842.78;;;0.75;100.00
18765;BME280;9511;54.242;12.448;2024-02-28T01:01:04;101844.47;;;0.74;100.00
18765;BME280;9511;54.242;12.448;2024-02-28T01:03:31;101843.44;;;0.72;100.00
18765;BME280;9511;54.242;12.448;2024-02-28T01:05:58;101842.53;;;0.72;100.00
18765;BME280;9511;54.242;12.448;2024-02-28T01:08:27;101834.84;;;0.73;100.00
18765;BME280;9511;54.242;12.448;2024-02-28T01:10:55;101832.78;;;0.69;100.00
18765;BME280;9511;54.242;12.448;2024-02-28T01:13:22;101835.91;;;0.65;100.00
18765;BME280;9511;54.242;12.448;2024-02-28T01:15:49;101832.84;;;0.49;100.00
18765;BME280;9511;54.242;12.448;2024-02-28T01:18:17;101838.03;;;0.49;100.00
18765;BME280;9511;54.242;12.448;2024-02-28T01:20:44;101841.81;;;0.52;100.00
18765;BME280;9511;54.242;12.448;2024-02-28T01:23:11;101843.53;;;0.52;100.00
18765;BME280;9511;54.242;12.448;2024-02-28T01:25:38;101841.16;;;0.55;100.00
18765;BME280;9511;54.242;12.448;2024-02-28T01:28:06;101844.81;;;0.47;100.00
18765;BME280;9511;54.242;12.448;2024-02-28T01:30:34;101836.97;;;0.57;100.00
18765;BME280;9511;54.242;12.448;2024-02-28T01:33:01;101829.44;;;0.50;100.00
18765;BME280;9511;54.242;12.448;2024-02-28T01:35:28;101841.81;;;0.52;100.00
18765;BME280;9511;54.242;12.448;2024-02-28T01:37:55;101839.72;;;0.59;100.00
18765;BME280;9511;54.242;12.448;2024-02-28T01:40:22;101828.63;;;0.61;100.00
18765;BME280;9511;54.242;12.448;2024-02-28T01:42:49;101828.91;;;0.64;100.00
18765;BME280;9511;54.242;12.448;2024-02-28T01:45:18;101824.09;;;0.59;100.00
18765;BME280;9511;54.242;12.448;2024-02-28T01:47:45;101834.41;;;0.47;100.00
18765;BME280;9511;54.242;12.448;2024-02-28T01:50:12;101824.66;;;0.44;100.00
18765;BME280;9511;54.242;12.448;2024-02-28T01:52:39;101829.22;;;0.47;100.00
18765;BME280;9511;54.242;12.448;2024-02-28T01:55:08;101821.91;;;0.43;100.00
18765;BME280;9511;54.242;12.448;2024-02-28T01:57:36;101824.22;;;0.50;100.00
18765;BME280;9511;54.242;12.448;2024-02-28T02:00:05;101822.94;;;0.55;100.00
18765;BME280;9511;54.242;12.448;2024-02-28T02:02:35;101825.03;;;0.49;100.00
18765;BME280;9511;54.242;12.448;2024-02-28T02:05:02;101824.66;;;0.44;100.00
18765;BME280;9511;54.242;12.448;2024-02-28T02:07:30;101825.31;;;0.42;100.00
18765;BME280;9511;54.242;12.448;2024-02-28T02:09:58;101825.03;;;0.39;100.00
18765;BME280;9511;54.242;12.448;2024-02-28T02:12:25;101823.72;;;0.44;100.00
18765;BME280;9511;54.242;12.448;2024-02-28T02:14:52;101823.91;;;0.35;100.00
18765;BME280;9511;54.242;12.448;2024-02-28T02:17:19;101825.31;;;0.42;100.00
18765;BME280;9511;54.242;12.448;2024-02-28T02:19:47;101823.50;;;0.41;100.00
18765;BME280;9511;54.242;12.448;2024-02-28T02:22:15;101819.59;;;0.36;100.00
18765;BME280;9511;54.242;12.448;2024-02-28T02:24:44;101831.06;;;0.28;100.00
18765;BME280;9511;54.242;12.448;2024-02-28T02:27:12;101826.81;;;0.18;100.00
18765;BME280;9511;54.242;12.448;2024-02-28T02:29:39;101825.22;;;0.20;100.00
18765;BME280;9511;54.242;12.448;2024-02-28T02:32:06;101824.69;;;0.24;100.00
18765;BME280;9511;54.242;12.448;2024-02-28T02:34:33;101830.41;;;0.30;100.00
18765;BME280;9511;54.242;12.448;2024-02-28T02:37:01;101832.63;;;0.25;100.00
18765;BME280;9511;54.242;12.448;2024-02-28T02:39:28;101826.13;;;0.31;100.00
18765;BME280;9511;54.242;12.448;2024-02-28T02:41:56;101826.63;;;0.26;100.00
18765;BME280;9511;54.242;12.448;2024-02-28T02:44:24;101824.66;;;0.34;100.00
18765;BME280;9511;54.242;12.448;2024-02-28T02:46:51;101829.50;;;0.30;100.00
18765;BME280;9511;54.242;12.448;2024-02-28T02:49:18;101821.66;;;0.40;100.00
18765;BME280;9511;54.242;12.448;2024-02-28T02:51:45;101822.59;;;0.40;100.00
18765;BME280;9511;54.242;12.448;2024-02-28T02:54:12;101814.63;;;0.39;100.00
18765;BME280;9511;54.242;12.448;2024-02-28T02:56:41;101815.81;;;0.42;100.00
18765;BME280;9511;54.242;12.448;2024-02-28T02:59:09;101810.19;;;0.48;100.00
18765;BME280;9511;54.242;12.448;2024-02-28T03:01:36;101809.41;;;0.49;100.00
18765;BME280;9511;54.242;12.448;2024-02-28T03:04:04;101806.41;;;0.55;100.00
18765;BME280;9511;54.242;12.448;2024-02-28T03:06:31;101810.94;;;0.57;100.00
18765;BME280;9511;54.242;12.448;2024-02-28T03:08:59;101817.88;;;0.46;100.00
18765;BME280;9511;54.242;12.448;2024-02-28T03:11:26;101813.53;;;0.57;100.00
18765;BME280;9511;54.242;12.448;2024-02-28T03:13:53;101812.53;;;0.45;100.00
18765;BME280;9511;54.242;12.448;2024-02-28T03:16:21;101807.06;;;0.52;100.00
18765;BME280;9511;54.242;12.448;2024-02-28T03:18:49;101801.19;;;0.55;100.00
18765;BME280;9511;54.242;12.448;2024-02-28T03:21:16;101799.50;;;0.55;100.00
18765;BME280;9511;54.242;12.448;2024-02-28T03:23:43;101797.97;;;0.47;100.00
18765;BME280;9511;54.242;12.448;2024-02-28T03:26:10;101798.31;;;0.51;100.00
18765;BME280;9511;54.242;12.448;2024-02-28T03:28:37;101793.50;;;0.56;100.00
18765;BME280;9511;54.242;12.448;2024-02-28T03:31:04;101791.56;;;0.53;100.00
18765;BME280;9511;54.242;12.448;2024-02-28T03:33:33;101797.69;;;0.54;100.00
18765;BME280;9511;54.242;12.448;2024-02-28T03:36:01;101795.50;;;0.38;100.00
18765;BME280;9511;54.242;12.448;2024-02-28T03:38:28;101790.00;;;0.45;100.00
18765;BME280;9511;54.242;12.448;2024-02-28T03:40:55;101794.09;;;0.42;100.00
18765;BME280;9511;54.242;12.448;2024-02-28T03:43:22;101799.81;;;0.38;100.00
18765;BME280;9511;54.242;12.448;2024-02-28T03:45:49;101795.13;;;0.34;100.00
18765;BME280;9511;54.242;12.448;2024-02-28T03:48:17;101806.59;;;0.25;100.00
18765;BME280;9511;54.242;12.448;2024-02-28T03:50:45;101811.53;;;0.22;100.00
18765;BME280;9511;54.242;12.448;2024-02-28T03:53:12;101814.81;;;0.30;100.00
18765;BME280;9511;54.242;12.448;2024-02-28T03:55:39;101819.09;;;0.30;100.00
18765;BME280;9511;54.242;12.448;2024-02-28T03:58:06;101815.44;;;0.28;100.00
18765;BME280;9511;54.242;12.448;2024-02-28T04:00:34;101815.88;;;0.12;100.00
18765;BME280;9511;54.242;12.448;2024-02-28T04:03:02;101819.91;;;0.18;100.00
18765;BME280;9511;54.242;12.448;2024-02-28T04:05:29;101818.09;;;0.17;100.00
18765;BME280;9511;54.242;12.448;2024-02-28T04:07:58;101822.50;;;0.18;100.00
18765;BME280;9511;54.242;12.448;2024-02-28T04:10:25;101813.91;;;0.19;100.00
18765;BME280;9511;54.242;12.448;2024-02-28T04:12:52;101812.34;;;0.21;100.00
18765;BME280;9511;54.242;12.448;2024-02-28T04:15:19;101813.91;;;0.19;100.00
18765;BME280;9511;54.242;12.448;2024-02-28T04:17:46;101814.94;;;0.21;100.00
18765;BME280;9511;54.242;12.448;2024-02-28T04:20:14;101819.63;;;0.15;100.00
18765;BME280;9511;54.242;12.448;2024-02-28T04:22:42;101819.38;;;0.12;100.00
18765;BME280;9511;54.242;12.448;2024-02-28T04:25:10;101827.72;;;0.18;100.00
18765;BME280;9511;54.242;12.448;2024-02-28T04:27:37;101833.41;;;0.24;100.00
18765;BME280;9511;54.242;12.448;2024-02-28T04:30:05;101837.16;;;0.28;100.00
18765;BME280;9511;54.242;12.448;2024-02-28T04:32:32;101842.13;;;0.25;100.00
18765;BME280;9511;54.242;12.448;2024-02-28T04:35:01;101844.97;;;0.28;100.00
18765;BME280;9511;54.242;12.448;2024-02-28T04:37:28;101848.06;;;0.34;100.00
18765;BME280;9511;54.242;12.448;2024-02-28T04:39:55;101843.03;;;0.36;100.00
18765;BME280;9511;54.242;12.448;2024-02-28T04:42:24;101842.63;;;0.31;100.00
18765;BME280;9511;54.242;12.448;2024-02-28T04:44:51;101850.94;;;0.37;100.00
18765;BME280;9511;54.242;12.448;2024-02-28T04:47:18;101859.03;;;0.40;100.00
18765;BME280;9511;54.242;12.448;2024-02-28T04:49:45;101866.97;;;0.42;100.00
18765;BME280;9511;54.242;12.448;2024-02-28T04:52:12;101865.38;;;0.44;100.00
18765;BME280;9511;54.242;12.448;2024-02-28T04:54:40;101873.06;;;0.32;100.00
18765;BME280;9511;54.242;12.448;2024-02-28T04:57:07;101862.03;;;0.24;100.00
18765;BME280;9511;54.242;12.448;2024-02-28T04:59:35;101870.25;;;0.29;100.00
18765;BME280;9511;54.242;12.448;2024-02-28T05:02:02;101869.34;;;0.18;100.00
18765;BME280;9511;54.242;12.448;2024-02-28T05:04:29;101879.47;;;0.15;100.00
18765;BME280;9511;54.242;12.448;2024-02-28T05:06:56;101886.47;;;0.16;100.00
18765;BME280;9511;54.242;12.448;2024-02-28T05:09:23;101883.88;;;0.16;100.00
18765;BME280;9511;54.242;12.448;2024-02-28T05:11:51;101887.28;;;0.15;100.00
18765;BME280;9511;54.242;12.448;2024-02-28T05:14:18;101875.84;;;0.23;100.00
18765;BME280;9511;54.242;12.448;2024-02-28T05:16:47;101881.78;;;0.22;100.00
18765;BME280;9511;54.242;12.448;2024-02-28T05:19:15;101875.16;;;0.26;100.00
18765;BME280;9511;54.242;12.448;2024-02-28T05:21:44;101882.84;;;0.24;100.00
18765;BME280;9511;54.242;12.448;2024-02-28T05:24:11;101877.25;;;0.20;100.00
18765;BME280;9511;54.242;12.448;2024-02-28T05:26:38;101877.78;;;0.16;100.00
18765;BME280;9511;54.242;12.448;2024-02-28T05:29:06;101866.72;;;0.18;100.00
18765;BME280;9511;54.242;12.448;2024-02-28T05:31:33;101863.97;;;0.17;100.00
18765;BME280;9511;54.242;12.448;2024-02-28T05:34:03;101867.09;;;0.23;100.00
18765;BME280;9511;54.242;12.448;2024-02-28T05:36:31;101866.34;;;0.24;100.00
18765;BME280;9511;54.242;12.448;2024-02-28T05:38:58;101857.06;;;0.28;100.00
18765;BME280;9511;54.242;12.448;2024-02-28T05:41:26;101858.88;;;0.39;100.00
18765;BME280;9511;54.242;12.448;2024-02-28T05:43:54;101852.88;;;0.40;100.00
18765;BME280;9511;54.242;12.448;2024-02-28T05:46:22;101854.59;;;0.39;100.00
18765;BME280;9511;54.242;12.448;2024-02-28T05:48:49;101863.44;;;0.41;100.00
18765;BME280;9511;54.242;12.448;2024-02-28T05:51:19;101873.72;;;0.40;100.00
18765;BME280;9511;54.242;12.448;2024-02-28T05:53:46;101879.31;;;0.44;100.00
18765;BME280;9511;54.242;12.448;2024-02-28T05:56:13;101881.50;;;0.50;100.00
18765;BME280;9511;54.242;12.448;2024-02-28T05:58:41;101886.19;;;0.54;100.00
18765;BME280;9511;54.242;12.448;2024-02-28T06:01:09;101889.56;;;0.63;100.00
18765;BME280;9511;54.242;12.448;2024-02-28T06:03:36;101878.88;;;0.60;100.00
18765;BME280;9511;54.242;12.448;2024-02-28T06:06:03;101887.81;;;0.74;100.00
18765;BME280;9511;54.242;12.448;2024-02-28T06:08:34;101883.81;;;0.67;100.00
18765;BME280;9511;54.242;12.448;2024-02-28T06:11:01;101878.22;;;0.63;100.00
18765;BME280;9511;54.242;12.448;2024-02-28T06:13:28;101877.06;;;0.59;100.00
18765;BME280;9511;54.242;12.448;2024-02-28T06:15:55;101884.50;;;0.55;100.00
18765;BME280;9511;54.242;12.448;2024-02-28T06:18:23;101881.91;;;0.55;100.00
18765;BME280;9511;54.242;12.448;2024-02-28T06:20:52;101879.97;;;0.52;100.00
18765;BME280;9511;54.242;12.448;2024-02-28T06:23:21;101881.38;;;0.48;100.00
18765;BME280;9511;54.242;12.448;2024-02-28T06:25:50;101878.13;;;0.51;100.00
18765;BME280;9511;54.242;12.448;2024-02-28T06:28:17;101884.50;;;0.55;100.00
18765;BME280;9511;54.242;12.448;2024-02-28T06:30:44;101894.25;;;0.57;100.00
18765;BME280;9511;54.242;12.448;2024-02-28T06:33:12;101906.34;;;0.67;100.00
18765;BME280;9511;54.242;12.448;2024-02-28T06:35:39;101897.91;;;0.59;100.00
18765;BME280;9511;54.242;12.448;2024-02-28T06:38:06;101906.75;;;0.61;100.00
18765;BME280;9511;54.242;12.448;2024-02-28T06:40:34;101901.81;;;0.64;100.00
18765;BME280;9511;54.242;12.448;2024-02-28T06:43:02;101900.91;;;0.64;100.00
18765;BME280;9511;54.242;12.448;2024-02-28T06:45:30;101899.03;;;0.63;100.00
18765;BME280;9511;54.242;12.448;2024-02-28T06:47:58;101913.75;;;0.62;100.00
18765;BME280;9511;54.242;12.448;2024-02-28T06:50:25;101906.59;;;0.70;100.00
18765;BME280;9511;54.242;12.448;2024-02-28T06:52:52;101906.75;;;0.61;100.00
18765;BME280;9511;54.242;12.448;2024-02-28T06:55:20;101922.34;;;0.71;100.00
18765;BME280;9511;54.242;12.448;2024-02-28T06:57:47;101911.81;;;0.70;100.00
18765;BME280;9511;54.242;12.448;2024-02-28T07:00:16;101905.03;;;0.72;100.00
18765;BME280;9511;54.242;12.448;2024-02-28T07:02:45;101917.94;;;0.60;100.00
18765;BME280;9511;54.242;12.448;2024-02-28T07:05:12;101911.03;;;0.61;100.00
18765;BME280;9511;54.242;12.448;2024-02-28T07:07:39;101909.63;;;0.54;100.00
18765;BME280;9511;54.242;12.448;2024-02-28T07:10:07;101911.81;;;0.60;100.00
18765;BME280;9511;54.242;12.448;2024-02-28T07:12:34;101910.91;;;0.59;100.00
18765;BME280;9511;54.242;12.448;2024-02-28T07:15:01;101911.16;;;0.72;100.00
18765;BME280;9511;54.242;12.448;2024-02-28T07:17:29;101920.78;;;0.73;100.00
18765;BME280;9511;54.242;12.448;2024-02-28T07:19:56;101924.03;;;0.71;100.00
18765;BME280;9511;54.242;12.448;2024-02-28T07:22:24;101928.34;;;0.70;100.00
18765;BME280;9511;54.242;12.448;2024-02-28T07:24:51;101926.75;;;0.72;100.00
18765;BME280;9511;54.242;12.448;2024-02-28T07:27:18;101924.16;;;0.72;100.00
18765;BME280;9511;54.242;12.448;2024-02-28T07:29:45;101926.63;;;0.81;100.00
18765;BME280;9511;54.242;12.448;2024-02-28T07:32:12;101929.88;;;0.78;100.00
18765;BME280;9511;54.242;12.448;2024-02-28T07:34:40;101937.97;;;0.82;100.00
18765;BME280;9511;54.242;12.448;2024-02-28T07:37:08;101931.69;;;0.79;100.00
18765;BME280;9511;54.242;12.448;2024-02-28T07:39:35;101940.00;;;0.86;100.00
18765;BME280;9511;54.242;12.448;2024-02-28T07:42:02;101940.56;;;0.82;100.00
18765;BME280;9511;54.242;12.448;2024-02-28T07:44:29;101942.75;;;0.87;100.00
18765;BME280;9511;54.242;12.448;2024-02-28T07:46:57;101943.66;;;0.88;100.00
18765;BME280;9511;54.242;12.448;2024-02-28T07:49:25;101952.72;;;1.03;100.00
18765;BME280;9511;54.242;12.448;2024-02-28T07:51:53;101960.44;;;0.91;100.00
18765;BME280;9511;54.242;12.448;2024-02-28T07:54:20;101964.63;;;0.99;100.00
18765;BME280;9511;54.242;12.448;2024-02-28T07:56:48;101966.16;;;0.97;100.00
18765;BME280;9511;54.242;12.448;2024-02-28T07:59:15;101963.44;;;0.96;100.00
18765;BME280;9511;54.242;12.448;2024-02-28T08:01:43;101958.50;;;0.99;100.00
18765;BME280;9511;54.242;12.448;2024-02-28T08:04:10;101955.00;;;0.88;100.00
18765;BME280;9511;54.242;12.448;2024-02-28T08:06:39;101952.13;;;0.85;100.00
18765;BME280;9511;54.242;12.448;2024-02-28T08:09:08;101949.78;;;0.88;100.00
18765;BME280;9511;54.242;12.448;2024-02-28T08:11:35;101945.63;;;0.80;100.00
18765;BME280;9511;54.242;12.448;2024-02-28T08:14:02;101951.78;;;0.81;100.00
18765;BME280;9511;54.242;12.448;2024-02-28T08:16:29;101943.91;;;0.91;100.00
18765;BME280;9511;54.242;12.448;2024-02-28T08:18:56;101944.00;;;1.02;100.00
18765;BME280;9511;54.242;12.448;2024-02-28T08:21:24;101948.06;;;1.09;100.00
18765;BME280;9511;54.242;12.448;2024-02-28T08:23:52;101952.97;;;1.16;100.00
18765;BME280;9511;54.242;12.448;2024-02-28T08:26:22;101951.88;;;1.24;100.00
18765;BME280;9511;54.242;12.448;2024-02-28T08:28:50;101954.94;;;1.41;100.00
18765;BME280;9511;54.242;12.448;2024-02-28T08:31:17;101939.84;;;1.37;100.00
18765;BME280;9511;54.242;12.448;2024-02-28T08:33:44;101951.31;;;1.39;100.00
18765;BME280;9511;54.242;12.448;2024-02-28T08:36:11;101947.09;;;1.51;100.00
18765;BME280;9511;54.242;12.448;2024-02-28T08:38:38;101944.19;;;1.58;100.00
18765;BME280;9511;54.242;12.448;2024-02-28T08:41:05;101942.06;;;1.64;100.00
18765;BME280;9511;54.242;12.448;2024-02-28T08:43:37;101941.53;;;1.68;100.00
18765;BME280;9511;54.242;12.448;2024-02-28T08:46:04;101942.38;;;1.57;100.00
18765;BME280;9511;54.242;12.448;2024-02-28T08:48:32;101943.34;;;1.69;100.00
18765;BME280;9511;54.242;12.448;2024-02-28T08:50:59;101947.03;;;1.83;100.00
18765;BME280;9511;54.242;12.448;2024-02-28T08:53:27;101949.03;;;1.75;100.00
18765;BME280;9511;54.242;12.448;2024-02-28T08:55:54;101946.06;;;1.93;100.00
18765;BME280;9511;54.242;12.448;2024-02-28T08:58:21;101942.03;;;2.08;100.00
18765;BME280;9511;54.242;12.448;2024-02-28T09:00:49;101950.97;;;2.00;100.00
18765;BME280;9511;54.242;12.448;2024-02-28T09:03:17;101940.84;;;1.93;100.00
18765;BME280;9511;54.242;12.448;2024-02-28T09:05:45;101949.50;;;2.03;100.00
18765;BME280;9511;54.242;12.448;2024-02-28T09:08:13;101948.50;;;2.01;100.00
18765;BME280;9511;54.242;12.448;2024-02-28T09:10:40;101946.47;;;2.09;100.00
18765;BME280;9511;54.242;12.448;2024-02-28T09:13:07;101947.41;;;2.21;100.00
18765;BME280;9511;54.242;12.448;2024-02-28T09:15:36;101952.63;;;2.21;100.00
18765;BME280;9511;54.242;12.448;2024-02-28T09:18:05;101955.78;;;2.17;100.00
18765;BME280;9511;54.242;12.448;2024-02-28T09:20:32;101957.13;;;2.12;100.00
18765;BME280;9511;54.242;12.448;2024-02-28T09:22:59;101955.38;;;2.34;100.00
18765;BME280;9511;54.242;12.448;2024-02-28T09:25:26;101944.00;;;2.22;100.00
18765;BME280;9511;54.242;12.448;2024-02-28T09:27:53;101947.88;;;2.27;100.00
18765;BME280;9511;54.242;12.448;2024-02-28T09:30:20;101948.66;;;2.15;100.00
18765;BME280;9511;54.242;12.448;2024-02-28T09:32:48;101962.66;;;2.27;100.00
18765;BME280;9511;54.242;12.448;2024-02-28T09:35:17;101960.50;;;2.33;100.00
18765;BME280;9511;54.242;12.448;2024-02-28T09:37:44;101954.94;;;2.40;100.00
18765;BME280;9511;54.242;12.448;2024-02-28T09:40:12;101954.50;;;2.46;100.00
18765;BME280;9511;54.242;12.448;2024-02-28T09:42:39;101954.69;;;2.59;100.00
18765;BME280;9511;54.242;12.448;2024-02-28T09:45:08;101954.91;;;2.62;100.00
18765;BME280;9511;54.242;12.448;2024-02-28T09:47:36;101958.56;;;2.64;100.00
18765;BME280;9511;54.242;12.448;2024-02-28T09:50:04;101964.78;;;2.66;100.00
18765;BME280;9511;54.242;12.448;2024-02-28T09:52:33;101960.38;;;2.65;100.00
18765;BME280;9511;54.242;12.448;2024-02-28T09:55:01;101964.34;;;2.60;100.00
18765;BME280;9511;54.242;12.448;2024-02-28T09:57:29;101953.41;;;2.54;100.00
18765;BME280;9511;54.242;12.448;2024-02-28T09:59:57;101953.53;;;2.55;100.00
18765;BME280;9511;54.242;12.448;2024-02-28T10:02:26;101955.88;;;2.52;100.00
18765;BME280;9511;54.242;12.448;2024-02-28T10:04:55;101952.63;;;2.66;100.00
18765;BME280;9511;54.242;12.448;2024-02-28T10:07:23;101957.31;;;2.82;100.00
18765;BME280;9511;54.242;12.448;2024-02-28T10:09:51;101956.16;;;2.67;100.00
18765;BME280;9511;54.242;12.448;2024-02-28T10:12:20;101955.25;;;2.66;100.00
18765;BME280;9511;54.242;12.448;2024-02-28T10:14:49;101958.22;;;2.83;100.00
18765;BME280;9511;54.242;12.448;2024-02-28T10:17:16;101967.53;;;2.91;100.00
18765;BME280;9511;54.242;12.448;2024-02-28T10:19:43;101960.94;;;2.84;99.82
18765;BME280;9511;54.242;12.448;2024-02-28T10:22:11;101971.66;;;2.99;98.80
18765;BME280;9511;54.242;12.448;2024-02-28T10:24:38;101968.44;;;2.80;97.54
18765;BME280;9511;54.242;12.448;2024-02-28T10:27:06;101964.91;;;2.79;97.17
18765;BME280;9511;54.242;12.448;2024-02-28T10:29:33;101963.00;;;3.12;96.84
18765;BME280;9511;54.242;12.448;2024-02-28T10:32:00;101968.00;;;3.09;96.18
18765;BME280;9511;54.242;12.448;2024-02-28T10:34:29;101957.50;;;3.44;95.83
18765;BME280;9511;54.242;12.448;2024-02-28T10:36:57;101954.53;;;3.63;95.39
18765;BME280;9511;54.242;12.448;2024-02-28T10:39:26;101959.22;;;3.43;93.56
18765;BME280;9511;54.242;12.448;2024-02-28T10:41:53;101963.88;;;3.47;92.64
18765;BME280;9511;54.242;12.448;2024-02-28T10:44:22;101961.34;;;3.61;91.42
18765;BME280;9511;54.242;12.448;2024-02-28T10:46:53;101958.22;;;3.78;91.16
18765;BME280;9511;54.242;12.448;2024-02-28T10:49:21;101955.19;;;3.72;90.96
18765;BME280;9511;54.242;12.448;2024-02-28T10:51:49;101962.25;;;4.10;90.65
18765;BME280;9511;54.242;12.448;2024-02-28T10:54:20;101956.25;;;3.99;89.71
18765;BME280;9511;54.242;12.448;2024-02-28T10:56:48;101966.38;;;3.94;90.28
18765;BME280;9511;54.242;12.448;2024-02-28T10:59:16;101961.97;;;4.43;90.18
18765;BME280;9511;54.242;12.448;2024-02-28T11:01:44;101963.56;;;4.41;90.01
18765;BME280;9511;54.242;12.448;2024-02-28T11:04:13;101966.66;;;4.74;89.67
18765;BME280;9511;54.242;12.448;2024-02-28T11:06:49;101970.41;;;4.39;88.62
18765;BME280;9511;54.242;12.448;2024-02-28T11:09:19;101976.06;;;4.45;88.40
18765;BME280;9511;54.242;12.448;2024-02-28T11:11:48;101965.81;;;4.48;88.27
18765;BME280;9511;54.242;12.448;2024-02-28T11:14:16;101964.19;;;4.89;88.77
18765;BME280;9511;54.242;12.448;2024-02-28T11:16:45;101967.31;;;4.96;88.38
18765;BME280;9511;54.242;12.448;2024-02-28T11:19:19;101962.47;;;4.76;87.11
18765;BME280;9511;54.242;12.448;2024-02-28T11:21:52;101969.25;;;4.47;86.83
18765;BME280;9511;54.242;12.448;2024-02-28T11:24:22;101955.69;;;4.66;87.15
18765;BME280;9511;54.242;12.448;2024-02-28T11:26:51;101956.56;;;4.53;86.69
18765;BME280;9511;54.242;12.448;2024-02-28T11:29:22;101955.38;;;4.75;86.79
18765;BME280;9511;54.242;12.448;2024-02-28T11:31:52;101951.19;;;5.17;87.20
18765;BME280;9511;54.242;12.448;2024-02-28T11:34:19;101946.94;;;5.32;86.79
18765;BME280;9511;54.242;12.448;2024-02-28T11:36:48;101944.44;;;5.33;86.19
18765;BME280;9511;54.242;12.448;2024-02-28T11:39:16;101945.22;;;5.32;85.73
18765;BME280;9511;54.242;12.448;2024-02-28T11:41:43;101946.03;;;5.18;85.69
18765;BME280;9511;54.242;12.448;2024-02-28T11:44:12;101949.28;;;5.01;85.76
18765;BME280;9511;54.242;12.448;2024-02-28T11:46:44;101949.84;;;5.10;86.14
18765;BME280;9511;54.242;12.448;2024-02-28T11:49:13;101943.13;;;5.40;86.12
18765;BME280;9511;54.242;12.448;2024-02-28T11:51:40;101944.06;;;5.69;85.21
18765;BME280;9511;54.242;12.448;2024-02-28T11:54:08;101935.50;;;5.45;84.48
18765;BME280;9511;54.242;12.448;2024-02-28T11:56:36;101937.75;;;5.39;84.94
18765;BME280;9511;54.242;12.448;2024-02-28T11:59:04;101943.72;;;5.10;84.44
18765;BME280;9511;54.242;12.448;2024-02-28T12:01:36;101948.06;;;5.22;84.98
18765;BME280;9511;54.242;12.448;2024-02-28T12:04:04;101949.19;;;4.99;84.82
18765;BME280;9511;54.242;12.448;2024-02-28T12:06:34;101946.94;;;4.79;85.37
18765;BME280;9511;54.242;12.448;2024-02-28T12:09:02;101942.50;;;4.78;86.42
18765;BME280;9511;54.242;12.448;2024-02-28T12:11:30;101954.19;;;4.96;86.50
18765;BME280;9511;54.242;12.448;2024-02-28T12:13:57;101953.28;;;5.09;86.49
18765;BME280;9511;54.242;12.448;2024-02-28T12:16:24;101953.00;;;5.18;86.29
18765;BME280;9511;54.242;12.448;2024-02-28T12:18:51;101947.75;;;5.31;86.28
18765;BME280;9511;54.242;12.448;2024-02-28T12:21:19;101943.59;;;5.21;86.29
18765;BME280;9511;54.242;12.448;2024-02-28T12:23:49;101942.00;;;5.23;86.29
18765;BME280;9511;54.242;12.448;2024-02-28T12:26:16;101937.47;;;5.21;85.97
18765;BME280;9511;54.242;12.448;2024-02-28T12:28:44;101940.31;;;5.11;85.90
18765;BME280;9511;54.242;12.448;2024-02-28T12:31:11;101928.97;;;5.38;85.51
18765;BME280;9511;54.242;12.448;2024-02-28T12:33:39;101936.19;;;5.55;85.33
18765;BME280;9511;54.242;12.448;2024-02-28T12:36:08;101938.69;;;5.39;85.17
18765;BME280;9511;54.242;12.448;2024-02-28T12:38:35;101932.88;;;5.58;86.10
18765;BME280;9511;54.242;12.448;2024-02-28T12:41:04;101935.59;;;5.59;84.84
18765;BME280;9511;54.242;12.448;2024-02-28T12:43:31;101928.34;;;5.42;84.99
18765;BME280;9511;54.242;12.448;2024-02-28T12:45:59;101931.91;;;5.29;84.72
18765;BME280;9511;54.242;12.448;2024-02-28T12:48:26;101925.44;;;5.38;84.70
18765;BME280;9511;54.242;12.448;2024-02-28T12:50:53;101920.84;;;5.75;85.00
18765;BME280;9511;54.242;12.448;2024-02-28T12:53:20;101922.25;;;5.70;84.61
18765;BME280;9511;54.242;12.448;2024-02-28T12:55:47;101928.94;;;5.65;84.79